sensor_id;sensor_type;location;lat;lon;timestamp;pressure;altitude;pressure_sealevel;temperature;humidity
68807;BME280;55800;54.272;18.558;2022-09-25T00:02:08;100876.66;;;9.50;65.21
68807;BME280;55800;54.272;18.558;2022-09-25T00:04:38;100878.41;;;9.51;65.19
68807;BME280;55800;54.272;18.558;2022-09-25T00:07:08;100873.97;;;9.52;65.20
68807;BME280;55800;54.272;18.558;2022-09-25T00:09:37;100873.97;;;9.52;65.32
68807;BME280;55800;54.272;18.558;2022-09-25T00:12:06;100875.69;;;9.53;65.27
68807;BME280;55800;54.272;18.558;2022-09-25T00:14:35;100877.44;;;9.54;65.20
68807;BME280;55800;54.272;18.558;2022-09-25T00:17:04;100861.44;;;9.54;65.26
68807;BME280;55800;54.272;18.558;2022-09-25T00:19:33;100869.38;;;9.55;65.24
68807;BME280;55800;54.272;18.558;2022-09-25T00:22:20;100859.59;;;9.56;65.27
68807;BME280;55800;54.272;18.558;2022-09-25T00:24:51;100861.31;;;9.57;65.32
68807;BME280;55800;54.272;18.558;2022-09-25T00:27:20;100854.19;;;9.57;65.39
68807;BME280;55800;54.272;18.558;2022-09-25T00:29:49;100863.06;;;9.58;65.39
68807;BME280;55800;54.272;18.558;2022-09-25T00:32:19;100859.47;;;9.59;65.37
68807;BME280;55800;54.272;18.558;2022-09-25T00:34:48;100860.34;;;9.59;65.43
68807;BME280;55800;54.272;18.558;2022-09-25T00:37:19;100854.03;;;9.62;65.44
68807;BME280;55800;54.272;18.558;2022-09-25T00:39:48;100858.50;;;9.61;65.45
68807;BME280;55800;54.272;18.558;2022-09-25T00:42:19;100848.69;;;9.62;65.74
68807;BME280;55800;54.272;18.558;2022-09-25T00:45:08;100850.44;;;9.63;65.55
68807;BME280;55800;54.272;18.558;2022-09-25T00:47:49;100847.78;;;9.63;65.60
68807;BME280;55800;54.272;18.558;2022-09-25T00:50:28;100851.31;;;9.63;65.60
68807;BME280;55800;54.272;18.558;2022-09-25T00:53:04;100845.97;;;9.63;65.75
68807;BME280;55800;54.272;18.558;2022-09-25T00:55:35;100850.44;;;9.63;65.60
68807;BME280;55800;54.272;18.558;2022-09-25T00:58:06;100842.44;;;9.63;65.60
68807;BME280;55800;54.272;18.558;2022-09-25T01:00:36;100843.28;;;9.63;65.64
68807;BME280;55800;54.272;18.558;2022-09-25T01:03:07;100848.59;;;9.65;65.60
68807;BME280;55800;54.272;18.558;2022-09-25T01:05:37;100846.84;;;9.64;65.73
68807;BME280;55800;54.272;18.558;2022-09-25T01:08:12;100845.94;;;9.65;65.62
68807;BME280;55800;54.272;18.558;2022-09-25T01:10:42;100850.41;;;9.64;65.74
68807;BME280;55800;54.272;18.558;2022-09-25T01:13:12;100836.09;;;9.65;65.65
68807;BME280;55800;54.272;18.558;2022-09-25T01:15:51;100846.78;;;9.65;65.74
68807;BME280;55800;54.272;18.558;2022-09-25T01:18:46;100844.13;;;9.65;65.69
68807;BME280;55800;54.272;18.558;2022-09-25T01:21:26;100844.09;;;9.67;65.75
68807;BME280;55800;54.272;18.558;2022-09-25T01:24:10;100850.31;;;9.66;65.78
68807;BME280;55800;54.272;18.558;2022-09-25T01:29:48;100836.91;;;9.67;65.94
68807;BME280;55800;54.272;18.558;2022-09-25T01:32:22;100834.25;;;9.67;65.89
68807;BME280;55800;54.272;18.558;2022-09-25T01:34:58;100832.47;;;9.68;65.91
68807;BME280;55800;54.272;18.558;2022-09-25T01:37:34;100841.34;;;9.68;65.83
68807;BME280;55800;54.272;18.558;2022-09-25T01:40:08;100835.13;;;9.68;65.86
68807;BME280;55800;54.272;18.558;2022-09-25T01:42:43;100835.13;;;9.68;65.97
68807;BME280;55800;54.272;18.558;2022-09-25T01:45:22;100839.56;;;9.69;65.92
68807;BME280;55800;54.272;18.558;2022-09-25T01:47:52;100837.78;;;9.68;65.84
68807;BME280;55800;54.272;18.558;2022-09-25T01:50:27;100832.47;;;9.68;65.95
68807;BME280;55800;54.272;18.558;2022-09-25T01:53:01;100829.78;;;9.68;65.96
68807;BME280;55800;54.272;18.558;2022-09-25T01:55:34;100829.78;;;9.68;65.92
68807;BME280;55800;54.272;18.558;2022-09-25T01:58:10;100826.22;;;9.69;65.98
68807;BME280;55800;54.272;18.558;2022-09-25T02:00:47;100825.28;;;9.70;66.04
68807;BME280;55800;54.272;18.558;2022-09-25T02:03:22;100827.94;;;9.70;65.86
68807;BME280;55800;54.272;18.558;2022-09-25T02:05:55;100827.94;;;9.70;65.98
68807;BME280;55800;54.272;18.558;2022-09-25T02:08:29;100824.34;;;9.71;65.91
68807;BME280;55800;54.272;18.558;2022-09-25T02:11:02;100819.03;;;9.71;66.04
68807;BME280;55800;54.272;18.558;2022-09-25T02:13:37;100819.03;;;9.71;65.99
68807;BME280;55800;54.272;18.558;2022-09-25T02:16:10;100818.97;;;9.72;66.03
68807;BME280;55800;54.272;18.558;2022-09-25T02:18:41;100809.16;;;9.73;66.08
68807;BME280;55800;54.272;18.558;2022-09-25T02:21:37;100814.50;;;9.73;65.98
68807;BME280;55800;54.272;18.558;2022-09-25T02:24:18;100805.59;;;9.72;66.02
68807;BME280;55800;54.272;18.558;2022-09-25T02:26:49;100809.16;;;9.73;66.00
68807;BME280;55800;54.272;18.558;2022-09-25T02:29:19;100810.88;;;9.74;66.02
68807;BME280;55800;54.272;18.558;2022-09-25T02:31:50;100809.16;;;9.73;65.84
68807;BME280;55800;54.272;18.558;2022-09-25T02:34:22;100802.94;;;9.72;65.99
68807;BME280;55800;54.272;18.558;2022-09-25T02:36:51;100803.81;;;9.73;66.07
68807;BME280;55800;54.272;18.558;2022-09-25T02:39:22;100812.66;;;9.75;66.02
68807;BME280;55800;54.272;18.558;2022-09-25T02:42:08;100800.19;;;9.74;66.05
68807;BME280;55800;54.272;18.558;2022-09-25T02:44:55;100801.97;;;9.75;66.01
68807;BME280;55800;54.272;18.558;2022-09-25T02:47:36;100805.50;;;9.75;66.05
68807;BME280;55800;54.272;18.558;2022-09-25T02:50:14;100810.78;;;9.77;66.05
68807;BME280;55800;54.272;18.558;2022-09-25T02:52:49;100801.97;;;9.75;66.07
68807;BME280;55800;54.272;18.558;2022-09-25T02:55:24;100801.97;;;9.75;66.08
68807;BME280;55800;54.272;18.558;2022-09-25T02:57:58;100797.50;;;9.75;66.08
68807;BME280;55800;54.272;18.558;2022-09-25T03:00:29;100799.22;;;9.76;66.09
68807;BME280;55800;54.272;18.558;2022-09-25T03:03:02;100794.75;;;9.77;66.14
68807;BME280;55800;54.272;18.558;2022-09-25T03:05:33;100789.44;;;9.77;66.13
68807;BME280;55800;54.272;18.558;2022-09-25T03:08:02;100797.44;;;9.77;66.08
68807;BME280;55800;54.272;18.558;2022-09-25T03:10:49;100801.84;;;9.78;66.16
68807;BME280;55800;54.272;18.558;2022-09-25T03:13:20;100794.75;;;9.77;66.23
68807;BME280;55800;54.272;18.558;2022-09-25T03:15:56;100801.84;;;9.78;66.16
68807;BME280;55800;54.272;18.558;2022-09-25T03:18:28;100797.38;;;9.78;66.18
68807;BME280;55800;54.272;18.558;2022-09-25T03:20:57;100799.16;;;9.78;66.14
68807;BME280;55800;54.272;18.558;2022-09-25T03:23:27;100793.00;;;9.76;66.26
68807;BME280;55800;54.272;18.558;2022-09-25T03:25:55;100792.09;;;9.77;66.14
68807;BME280;55800;54.272;18.558;2022-09-25T03:28:25;100795.66;;;9.77;66.15
68807;BME280;55800;54.272;18.558;2022-09-25T03:30:58;100789.44;;;9.77;66.20
68807;BME280;55800;54.272;18.558;2022-09-25T03:33:32;100797.44;;;9.77;66.20
68807;BME280;55800;54.272;18.558;2022-09-25T03:36:04;100793.88;;;9.76;66.13
68807;BME280;55800;54.272;18.558;2022-09-25T03:38:33;100789.50;;;9.75;66.29
68807;BME280;55800;54.272;18.558;2022-09-25T03:41:04;100793.88;;;9.76;66.12
68807;BME280;55800;54.272;18.558;2022-09-25T03:43:36;100788.63;;;9.75;66.16
68807;BME280;55800;54.272;18.558;2022-09-25T03:46:07;100784.09;;;9.77;66.19
68807;BME280;55800;54.272;18.558;2022-09-25T03:48:39;100782.34;;;9.76;66.16
68807;BME280;55800;54.272;18.558;2022-09-25T03:51:09;100778.81;;;9.75;66.31
68807;BME280;55800;54.272;18.558;2022-09-25T03:53:38;100789.44;;;9.77;66.26
68807;BME280;55800;54.272;18.558;2022-09-25T03:56:10;100789.44;;;9.77;66.29
68807;BME280;55800;54.272;18.558;2022-09-25T03:58:40;100776.13;;;9.75;66.30
68807;BME280;55800;54.272;18.558;2022-09-25T04:01:09;100792.16;;;9.75;66.25
68807;BME280;55800;54.272;18.558;2022-09-25T04:03:40;100782.41;;;9.74;66.27
68807;BME280;55800;54.272;18.558;2022-09-25T04:06:16;100787.66;;;9.76;66.22
68807;BME280;55800;54.272;18.558;2022-09-25T04:08:46;100785.94;;;9.75;66.31
68807;BME280;55800;54.272;18.558;2022-09-25T04:11:18;100785.94;;;9.75;66.34
68807;BME280;55800;54.272;18.558;2022-09-25T04:13:47;100788.53;;;9.76;66.23
68807;BME280;55800;54.272;18.558;2022-09-25T04:16:16;100792.16;;;9.75;66.26
68807;BME280;55800;54.272;18.558;2022-09-25T04:18:49;100783.28;;;9.75;66.24
68807;BME280;55800;54.272;18.558;2022-09-25T04:21:18;100780.59;;;9.75;66.35
68807;BME280;55800;54.272;18.558;2022-09-25T04:23:47;100784.19;;;9.74;66.23
68807;BME280;55800;54.272;18.558;2022-09-25T04:26:31;100779.78;;;9.73;66.28
68807;BME280;55800;54.272;18.558;2022-09-25T04:29:00;100780.66;;;9.73;66.41
68807;BME280;55800;54.272;18.558;2022-09-25T04:31:31;100775.34;;;9.72;66.34
68807;BME280;55800;54.272;18.558;2022-09-25T04:34:02;100782.47;;;9.73;66.29
68807;BME280;55800;54.272;18.558;2022-09-25T04:36:30;100780.69;;;9.72;66.23
68807;BME280;55800;54.272;18.558;2022-09-25T04:38:59;100781.56;;;9.72;66.33
68807;BME280;55800;54.272;18.558;2022-09-25T04:41:28;100768.28;;;9.71;66.34
68807;BME280;55800;54.272;18.558;2022-09-25T04:43:57;100781.63;;;9.71;66.29
68807;BME280;55800;54.272;18.558;2022-09-25T04:46:26;100778.03;;;9.72;66.36
68807;BME280;55800;54.272;18.558;2022-09-25T04:48:55;100774.50;;;9.71;66.50
68807;BME280;55800;54.272;18.558;2022-09-25T04:51:25;100770.03;;;9.72;66.46
68807;BME280;55800;54.272;18.558;2022-09-25T04:53:55;100770.03;;;9.72;66.45
68807;BME280;55800;54.272;18.558;2022-09-25T04:56:25;100777.13;;;9.73;66.45
68807;BME280;55800;54.272;18.558;2022-09-25T04:58:54;100768.16;;;9.74;66.44
68807;BME280;55800;54.272;18.558;2022-09-25T05:01:23;100773.50;;;9.74;66.45
68807;BME280;55800;54.272;18.558;2022-09-25T05:03:52;100764.59;;;9.75;66.45
68807;BME280;55800;54.272;18.558;2022-09-25T05:06:21;100773.47;;;9.75;66.60
68807;BME280;55800;54.272;18.558;2022-09-25T05:08:52;100781.34;;;9.78;66.66
68807;BME280;55800;54.272;18.558;2022-09-25T05:11:21;100785.81;;;9.78;66.60
68807;BME280;55800;54.272;18.558;2022-09-25T05:13:50;100783.13;;;9.79;66.69
68807;BME280;55800;54.272;18.558;2022-09-25T05:16:19;100787.56;;;9.79;66.63
68807;BME280;55800;54.272;18.558;2022-09-25T05:18:49;100786.63;;;9.80;66.57
68807;BME280;55800;54.272;18.558;2022-09-25T05:21:18;100783.97;;;9.80;66.68
68807;BME280;55800;54.272;18.558;2022-09-25T05:23:47;100783.94;;;9.81;66.81
68807;BME280;55800;54.272;18.558;2022-09-25T05:26:17;100790.19;;;9.80;66.76
68807;BME280;55800;54.272;18.558;2022-09-25T05:28:48;100791.94;;;9.81;66.99
68807;BME280;55800;54.272;18.558;2022-09-25T05:31:18;100787.47;;;9.82;67.06
68807;BME280;55800;54.272;18.558;2022-09-25T05:33:47;100791.88;;;9.83;66.96
68807;BME280;55800;54.272;18.558;2022-09-25T05:36:18;100789.28;;;9.81;67.09
68807;BME280;55800;54.272;18.558;2022-09-25T05:38:47;100795.44;;;9.83;66.96
68807;BME280;55800;54.272;18.558;2022-09-25T05:41:17;100786.53;;;9.83;67.13
68807;BME280;55800;54.272;18.558;2022-09-25T05:43:46;100793.56;;;9.85;67.22
68807;BME280;55800;54.272;18.558;2022-09-25T05:46:17;100794.44;;;9.86;67.17
68807;BME280;55800;54.272;18.558;2022-09-25T05:48:46;100786.38;;;9.87;67.32
68807;BME280;55800;54.272;18.558;2022-09-25T05:51:15;100797.00;;;9.89;67.38
68807;BME280;55800;54.272;18.558;2022-09-25T05:53:44;100792.47;;;9.91;67.58
68807;BME280;55800;54.272;18.558;2022-09-25T05:56:14;100794.22;;;9.92;67.36
68807;BME280;55800;54.272;18.558;2022-09-25T05:58:44;100788.81;;;9.93;67.52
68807;BME280;55800;54.272;18.558;2022-09-25T06:01:14;100793.25;;;9.94;67.56
68807;BME280;55800;54.272;18.558;2022-09-25T06:03:43;100796.66;;;9.98;67.60
68807;BME280;55800;54.272;18.558;2022-09-25T06:06:12;100787.69;;;9.99;67.54
68807;BME280;55800;54.272;18.558;2022-09-25T06:08:41;100788.56;;;10.01;67.62
68807;BME280;55800;54.272;18.558;2022-09-25T06:11:10;100791.09;;;10.04;67.62
68807;BME280;55800;54.272;18.558;2022-09-25T06:13:39;100793.66;;;10.07;67.80
68807;BME280;55800;54.272;18.558;2022-09-25T06:16:15;100789.09;;;10.10;67.59
68807;BME280;55800;54.272;18.558;2022-09-25T06:18:46;100789.84;;;10.14;67.76
68807;BME280;55800;54.272;18.558;2022-09-25T06:21:15;100794.13;;;10.18;67.64
68807;BME280;55800;54.272;18.558;2022-09-25T06:23:44;100789.56;;;10.22;67.84
68807;BME280;55800;54.272;18.558;2022-09-25T06:26:13;100783.19;;;10.26;67.90
68807;BME280;55800;54.272;18.558;2022-09-25T06:28:42;100788.28;;;10.32;68.05
68807;BME280;55800;54.272;18.558;2022-09-25T06:31:12;100781.91;;;10.36;68.12
68807;BME280;55800;54.272;18.558;2022-09-25T06:33:41;100786.16;;;10.41;68.10
68807;BME280;55800;54.272;18.558;2022-09-25T06:36:13;100781.47;;;10.46;68.09
68807;BME280;55800;54.272;18.558;2022-09-25T06:38:42;100779.50;;;10.51;68.14
68807;BME280;55800;54.272;18.558;2022-09-25T06:41:11;100776.66;;;10.56;68.23
68807;BME280;55800;54.272;18.558;2022-09-25T06:43:40;100776.41;;;10.62;68.21
68807;BME280;55800;54.272;18.558;2022-09-25T06:46:09;100781.59;;;10.66;68.23
68807;BME280;55800;54.272;18.558;2022-09-25T06:48:39;100780.38;;;10.73;68.36
68807;BME280;55800;54.272;18.558;2022-09-25T06:51:09;100777.53;;;10.78;68.33
68807;BME280;55800;54.272;18.558;2022-09-25T06:53:38;100767.41;;;10.86;68.36
68807;BME280;55800;54.272;18.558;2022-09-25T06:56:07;100777.00;;;10.91;68.43
68807;BME280;55800;54.272;18.558;2022-09-25T06:58:37;100772.28;;;10.98;68.54
68807;BME280;55800;54.272;18.558;2022-09-25T07:01:08;100779.09;;;11.05;68.65
68807;BME280;55800;54.272;18.558;2022-09-25T07:03:40;100776.19;;;11.11;68.56
68807;BME280;55800;54.272;18.558;2022-09-25T07:06:13;100776.78;;;11.18;68.68
68807;BME280;55800;54.272;18.558;2022-09-25T07:08:43;100777.47;;;11.23;68.68
68807;BME280;55800;54.272;18.558;2022-09-25T07:11:16;100778.16;;;11.28;68.67
68807;BME280;55800;54.272;18.558;2022-09-25T07:13:46;100780.56;;;11.34;68.79
68807;BME280;55800;54.272;18.558;2022-09-25T07:16:24;100784.72;;;11.41;68.58
68807;BME280;55800;54.272;18.558;2022-09-25T07:18:56;100777.34;;;11.46;68.75
68807;BME280;55800;54.272;18.558;2022-09-25T07:21:26;100786.06;;;11.51;68.70
68807;BME280;55800;54.272;18.558;2022-09-25T07:23:57;100779.56;;;11.56;68.70
68807;BME280;55800;54.272;18.558;2022-09-25T07:26:28;100782.06;;;11.61;68.76
68807;BME280;55800;54.272;18.558;2022-09-25T07:29:02;100782.72;;;11.66;68.80
68807;BME280;55800;54.272;18.558;2022-09-25T07:31:34;100775.38;;;11.71;68.77
68807;BME280;55800;54.272;18.558;2022-09-25T07:34:06;100775.09;;;11.77;68.76
68807;BME280;55800;54.272;18.558;2022-09-25T07:36:38;100774.06;;;11.81;68.78
68807;BME280;55800;54.272;18.558;2022-09-25T07:39:09;100777.38;;;11.86;68.87
68807;BME280;55800;54.272;18.558;2022-09-25T07:41:45;100776.25;;;11.92;68.97
68807;BME280;55800;54.272;18.558;2022-09-25T07:44:14;100779.59;;;11.97;68.95
68807;BME280;55800;54.272;18.558;2022-09-25T07:46:55;100782.06;;;12.01;68.98
68807;BME280;55800;54.272;18.558;2022-09-25T07:49:26;100780.06;;;12.06;68.84
68807;BME280;55800;54.272;18.558;2022-09-25T07:51:55;100790.50;;;12.12;68.99
68807;BME280;55800;54.272;18.558;2022-09-25T07:54:25;100783.09;;;12.17;69.02
68807;BME280;55800;54.272;18.558;2022-09-25T07:56:54;100789.19;;;12.21;69.01
68807;BME280;55800;54.272;18.558;2022-09-25T07:59:23;100777.31;;;12.26;69.08
68807;BME280;55800;54.272;18.558;2022-09-25T08:01:52;100778.88;;;12.32;69.02
68807;BME280;55800;54.272;18.558;2022-09-25T08:04:21;100780.47;;;12.36;68.91
68807;BME280;55800;54.272;18.558;2022-09-25T08:06:52;100775.81;;;12.39;69.05
68807;BME280;55800;54.272;18.558;2022-09-25T08:09:21;100769.28;;;12.45;69.26
68807;BME280;55800;54.272;18.558;2022-09-25T08:11:50;100765.47;;;12.50;69.26
68807;BME280;55800;54.272;18.558;2022-09-25T08:14:19;100775.88;;;12.57;69.24
68807;BME280;55800;54.272;18.558;2022-09-25T08:16:54;100759.59;;;12.61;69.31
68807;BME280;55800;54.272;18.558;2022-09-25T08:19:23;100761.88;;;12.69;69.24
68807;BME280;55800;54.272;18.558;2022-09-25T08:21:56;100754.50;;;12.74;69.26
68807;BME280;55800;54.272;18.558;2022-09-25T08:24:24;100754.19;;;12.80;69.22
68807;BME280;55800;54.272;18.558;2022-09-25T08:26:53;100750.31;;;12.85;69.33
68807;BME280;55800;54.272;18.558;2022-09-25T08:29:23;100759.03;;;12.90;69.36
68807;BME280;55800;54.272;18.558;2022-09-25T08:31:52;100754.31;;;12.95;69.35
68807;BME280;55800;54.272;18.558;2022-09-25T08:34:21;100755.81;;;13.01;69.54
68807;BME280;55800;54.272;18.558;2022-09-25T08:37:11;100746.56;;;13.08;69.59
68807;BME280;55800;54.272;18.558;2022-09-25T08:39:41;100745.38;;;13.13;69.47
68807;BME280;55800;54.272;18.558;2022-09-25T08:42:14;100746.91;;;13.19;69.55
68807;BME280;55800;54.272;18.558;2022-09-25T08:44:48;100740.34;;;13.24;69.47
68807;BME280;55800;54.272;18.558;2022-09-25T08:47:51;100744.38;;;13.33;69.65
68807;BME280;55800;54.272;18.558;2022-09-25T08:50:40;100742.16;;;13.41;69.58
68807;BME280;55800;54.272;18.558;2022-09-25T08:53:16;100736.47;;;13.47;69.67
68807;BME280;55800;54.272;18.558;2022-09-25T08:55:54;100745.94;;;13.54;69.60
68807;BME280;55800;54.272;18.558;2022-09-25T08:58:48;100749.09;;;13.62;69.80
68807;BME280;55800;54.272;18.558;2022-09-25T09:01:22;100742.47;;;13.69;69.74
68807;BME280;55800;54.272;18.558;2022-09-25T09:03:55;100750.97;;;13.77;69.63
68807;BME280;55800;54.272;18.558;2022-09-25T09:06:27;100748.75;;;13.85;69.63
68807;BME280;55800;54.272;18.558;2022-09-25T09:09:03;100740.34;;;13.91;69.77
68807;BME280;55800;54.272;18.558;2022-09-25T09:11:37;100734.50;;;14.00;69.78
68807;BME280;55800;54.272;18.558;2022-09-25T09:14:12;100739.38;;;14.09;69.78
68807;BME280;55800;54.272;18.558;2022-09-25T09:16:45;100735.38;;;14.17;69.89
68807;BME280;55800;54.272;18.558;2022-09-25T09:19:17;100729.59;;;14.24;69.72
68807;BME280;55800;54.272;18.558;2022-09-25T09:21:47;100728.38;;;14.31;69.88
68807;BME280;55800;54.272;18.558;2022-09-25T09:24:26;100728.88;;;14.38;69.81
68807;BME280;55800;54.272;18.558;2022-09-25T09:27:10;100721.25;;;14.46;69.90
68807;BME280;55800;54.272;18.558;2022-09-25T09:30:00;100724.38;;;14.54;69.89
68807;BME280;55800;54.272;18.558;2022-09-25T09:32:53;100714.13;;;14.60;69.75
68807;BME280;55800;54.272;18.558;2022-09-25T09:35:30;100714.66;;;14.67;69.77
68807;BME280;55800;54.272;18.558;2022-09-25T09:38:09;100722.28;;;14.74;69.90
68807;BME280;55800;54.272;18.558;2022-09-25T09:41:00;100723.66;;;14.81;69.76
68807;BME280;55800;54.272;18.558;2022-09-25T09:43:45;100717.94;;;14.88;69.91
68807;BME280;55800;54.272;18.558;2022-09-25T09:46:31;100713.06;;;14.94;69.71
68807;BME280;55800;54.272;18.558;2022-09-25T09:49:11;100710.09;;;14.99;69.68
68807;BME280;55800;54.272;18.558;2022-09-25T09:51:46;100698.97;;;15.05;69.61
68807;BME280;55800;54.272;18.558;2022-09-25T09:54:19;100694.25;;;15.08;69.68
68807;BME280;55800;54.272;18.558;2022-09-25T09:56:55;100702.16;;;15.11;69.64
68807;BME280;55800;54.272;18.558;2022-09-25T09:59:27;100702.94;;;15.13;69.55
68807;BME280;55800;54.272;18.558;2022-09-25T10:02:01;100705.47;;;15.16;69.52
68807;BME280;55800;54.272;18.558;2022-09-25T10:04:35;100703.56;;;15.18;69.40
68807;BME280;55800;54.272;18.558;2022-09-25T10:07:08;100696.25;;;15.20;69.43
68807;BME280;55800;54.272;18.558;2022-09-25T10:09:39;100691.53;;;15.24;69.41
68807;BME280;55800;54.272;18.558;2022-09-25T10:12:16;100693.19;;;15.26;69.36
68807;BME280;55800;54.272;18.558;2022-09-25T10:14:48;100685.88;;;15.28;69.34
68807;BME280;55800;54.272;18.558;2022-09-25T10:17:18;100681.25;;;15.30;69.42
68807;BME280;55800;54.272;18.558;2022-09-25T10:19:53;100682.91;;;15.33;69.58
68807;BME280;55800;54.272;18.558;2022-09-25T10:22:25;100681.84;;;15.35;69.18
68807;BME280;55800;54.272;18.558;2022-09-25T10:24:56;100679.06;;;15.37;69.26
68807;BME280;55800;54.272;18.558;2022-09-25T10:27:34;100683.41;;;15.39;69.12
68807;BME280;55800;54.272;18.558;2022-09-25T10:30:11;100678.78;;;15.41;69.15
68807;BME280;55800;54.272;18.558;2022-09-25T10:32:44;100679.59;;;15.43;69.15
68807;BME280;55800;54.272;18.558;2022-09-25T10:35:15;100674.22;;;15.43;69.00
68807;BME280;55800;54.272;18.558;2022-09-25T10:37:48;100677.69;;;15.45;69.01
68807;BME280;55800;54.272;18.558;2022-09-25T10:40:28;100668.63;;;15.46;68.92
68807;BME280;55800;54.272;18.558;2022-09-25T10:43:16;100677.69;;;15.45;68.76
68807;BME280;55800;54.272;18.558;2022-09-25T10:45:47;100674.97;;;15.45;68.94
68807;BME280;55800;54.272;18.558;2022-09-25T10:48:28;100668.63;;;15.46;68.84
68807;BME280;55800;54.272;18.558;2022-09-25T10:51:16;100669.59;;;15.45;68.70
68807;BME280;55800;54.272;18.558;2022-09-25T10:53:49;100667.78;;;15.46;68.86
68807;BME280;55800;54.272;18.558;2022-09-25T10:56:21;100654.38;;;15.44;68.65
68807;BME280;55800;54.272;18.558;2022-09-25T10:58:58;100652.44;;;15.46;68.56
68807;BME280;55800;54.272;18.558;2022-09-25T11:01:31;100661.31;;;15.48;68.76
68807;BME280;55800;54.272;18.558;2022-09-25T11:04:05;100651.41;;;15.49;68.67
68807;BME280;55800;54.272;18.558;2022-09-25T11:06:44;100647.75;;;15.50;68.58
68807;BME280;55800;54.272;18.558;2022-09-25T11:09:16;100641.38;;;15.51;68.49
68807;BME280;55800;54.272;18.558;2022-09-25T11:11:46;100639.56;;;15.51;68.34
68807;BME280;55800;54.272;18.558;2022-09-25T11:14:22;100640.44;;;15.52;68.71
68807;BME280;55800;54.272;18.558;2022-09-25T11:16:55;100638.59;;;15.52;68.45
68807;BME280;55800;54.272;18.558;2022-09-25T11:19:27;100643.03;;;15.53;68.55
68807;BME280;55800;54.272;18.558;2022-09-25T11:22:13;100645.56;;;15.56;68.53
68807;BME280;55800;54.272;18.558;2022-09-25T11:24:53;100633.69;;;15.59;68.40
68807;BME280;55800;54.272;18.558;2022-09-25T11:27:33;100635.22;;;15.63;68.46
68807;BME280;55800;54.272;18.558;2022-09-25T11:30:10;100633.22;;;15.67;68.47
68807;BME280;55800;54.272;18.558;2022-09-25T11:32:47;100631.09;;;15.72;68.50
68807;BME280;55800;54.272;18.558;2022-09-25T11:35:32;100634.38;;;15.77;68.45
68807;BME280;55800;54.272;18.558;2022-09-25T11:38:13;100629.56;;;15.82;68.45
68807;BME280;55800;54.272;18.558;2022-09-25T11:40:53;100624.75;;;15.87;68.44
68807;BME280;55800;54.272;18.558;2022-09-25T11:43:48;100621.56;;;15.94;68.54
68807;BME280;55800;54.272;18.558;2022-09-25T11:46:34;100618.38;;;16.02;68.89
68807;BME280;55800;54.272;18.558;2022-09-25T11:49:13;100613.56;;;16.07;68.79
68807;BME280;55800;54.272;18.558;2022-09-25T11:52:04;100611.34;;;16.13;68.86
68807;BME280;55800;54.272;18.558;2022-09-25T11:54:52;100610.81;;;16.21;68.75
68807;BME280;55800;54.272;18.558;2022-09-25T11:57:38;100604.06;;;16.28;68.81
68807;BME280;55800;54.272;18.558;2022-09-25T12:00:17;100601.91;;;16.33;68.54
68807;BME280;55800;54.272;18.558;2022-09-25T12:03:05;100600.56;;;16.40;68.79
68807;BME280;55800;54.272;18.558;2022-09-25T12:06:03;100592.94;;;16.47;68.76
68807;BME280;55800;54.272;18.558;2022-09-25T12:08:46;100597.00;;;16.54;68.78
68807;BME280;55800;54.272;18.558;2022-09-25T12:11:25;100594.75;;;16.60;68.67
68807;BME280;55800;54.272;18.558;2022-09-25T12:14:01;100590.66;;;16.67;68.75
68807;BME280;55800;54.272;18.558;2022-09-25T12:16:37;100583.75;;;16.76;68.63
68807;BME280;55800;54.272;18.558;2022-09-25T12:19:20;100585.09;;;16.83;68.77
68807;BME280;55800;54.272;18.558;2022-09-25T12:22:00;100573.66;;;16.92;68.65
68807;BME280;55800;54.272;18.558;2022-09-25T12:24:46;100581.22;;;16.99;68.73
68807;BME280;55800;54.272;18.558;2022-09-25T12:27:24;100580.72;;;17.07;68.68
68807;BME280;55800;54.272;18.558;2022-09-25T12:30:12;100574.78;;;17.14;68.86
68807;BME280;55800;54.272;18.558;2022-09-25T12:35:50;100576.09;;;17.34;69.05
68807;BME280;55800;54.272;18.558;2022-09-25T12:38:28;100570.13;;;17.42;68.97
68807;BME280;55800;54.272;18.558;2022-09-25T12:41:06;100570.47;;;17.50;68.55
68807;BME280;55800;54.272;18.558;2022-09-25T12:43:42;100561.97;;;17.56;68.72
68807;BME280;55800;54.272;18.558;2022-09-25T12:46:17;100564.97;;;17.64;68.91
68807;BME280;55800;54.272;18.558;2022-09-25T12:48:51;100568.94;;;17.71;68.78
68807;BME280;55800;54.272;18.558;2022-09-25T12:51:30;100558.47;;;17.79;69.00
68807;BME280;55800;54.272;18.558;2022-09-25T12:54:10;100560.47;;;17.88;68.78
68807;BME280;55800;54.272;18.558;2022-09-25T12:56:45;100552.69;;;17.96;68.99
68807;BME280;55800;54.272;18.558;2022-09-25T12:59:22;100563.69;;;18.06;68.79
68807;BME280;55800;54.272;18.558;2022-09-25T13:01:56;100561.38;;;18.12;68.52
68807;BME280;55800;54.272;18.558;2022-09-25T13:04:42;100558.97;;;18.20;68.67
68807;BME280;55800;54.272;18.558;2022-09-25T13:07:20;100559.50;;;18.25;68.42
68807;BME280;55800;54.272;18.558;2022-09-25T13:09:51;100557.31;;;18.30;68.32
68807;BME280;55800;54.272;18.558;2022-09-25T13:12:30;100557.09;;;18.33;68.58
68807;BME280;55800;54.272;18.558;2022-09-25T13:15:03;100554.91;;;18.38;68.45
68807;BME280;55800;54.272;18.558;2022-09-25T13:17:34;100550.13;;;18.42;68.52
68807;BME280;55800;54.272;18.558;2022-09-25T13:23:32;100548.38;;;18.53;68.53
68807;BME280;55800;54.272;18.558;2022-09-25T13:26:10;100543.13;;;18.63;68.47
68807;BME280;55800;54.272;18.558;2022-09-25T13:28:46;100550.41;;;18.74;68.57
68807;BME280;55800;54.272;18.558;2022-09-25T13:31:22;100540.38;;;18.87;68.46